Time;durP1;ratioP1;P1;durP2;ratioP2;P2;SDS_P1;SDS_P2;PMS_P1;PMS_P2;Temp;Humidity;BMP_temperature;BMP_pressure;BME280_temperature;BME280_humidity;BME280_pressure;Samples;Min_cycle;Max_cycle;Signal;HPM_P1;HPM_P2
2022/06/01 00:01:51;;;;;;;3.83;2.80;;;;;;;;;;4972493;28;20023;-76
2022/06/01 00:04:18;;;;;;;8.23;3.10;;;;;;;;;;4972348;28;20027;-76
2022/06/01 00:06:44;;;;;;;3.75;2.78;;;;;;;;;;4972060;28;20027;-76
2022/06/01 00:09:11;;;;;;;3.95;2.80;;;;;;;;;;4972242;28;20369;-76
2022/06/01 00:11:37;;;;;;;4.07;2.95;;;;;;;;;;4980290;28;20038;-76
2022/06/01 00:14:03;;;;;;;5.78;2.95;;;;;;;;;;4969639;28;20034;-75
2022/06/01 00:16:30;;;;;;;4.28;2.60;;;;;;;;;;4967875;28;20034;-76
2022/06/01 00:18:57;;;;;;;4.72;3.00;;;;;;;;;;4969006;28;20015;-75
2022/06/01 00:21:23;;;;;;;5.82;3.30;;;;;;;;;;4971167;28;20038;-75
2022/06/01 00:23:50;;;;;;;4.78;3.00;;;;;;;;;;4968340;28;20496;-76
2022/06/01 00:26:16;;;;;;;4.68;3.28;;;;;;;;;;4967779;28;20045;-76
2022/06/01 00:28:43;;;;;;;4.32;3.17;;;;;;;;;;4967562;28;20407;-76
2022/06/01 00:31:13;;;;;;;4.78;3.20;;;;;;;;;;4969365;28;20045;-76
2022/06/01 00:33:39;;;;;;;8.32;2.58;;;;;;;;;;4969783;28;20443;-76
2022/06/01 00:36:07;;;;;;;6.90;3.03;;;;;;;;;;4968985;28;20045;-76
2022/06/01 00:38:34;;;;;;;7.00;2.90;;;;;;;;;;4972257;28;20423;-75
2022/06/01 00:41:01;;;;;;;5.25;3.00;;;;;;;;;;4971907;28;20081;-76
2022/06/01 00:43:38;;;;;;;5.03;3.13;;;;;;;;;;4971679;28;20033;-75
2022/06/01 00:46:04;;;;;;;5.13;2.88;;;;;;;;;;4971382;28;20027;-75
2022/06/01 00:48:33;;;;;;;4.60;3.17;;;;;;;;;;4972125;28;20424;-76
2022/06/01 00:50:59;;;;;;;5.43;3.42;;;;;;;;;;4968575;28;20115;-76
2022/06/01 00:53:32;;;;;;;5.13;3.33;;;;;;;;;;4971433;28;20061;-76
2022/06/01 00:56:00;;;;;;;7.70;3.42;;;;;;;;;;4971834;28;20031;-76
2022/06/01 00:58:29;;;;;;;4.63;3.05;;;;;;;;;;4971552;28;20027;-76
2022/06/01 01:00:58;;;;;;;5.53;3.00;;;;;;;;;;4971831;28;20519;-76
2022/06/01 01:03:25;;;;;;;5.55;2.95;;;;;;;;;;4971710;28;20029;-76
2022/06/01 01:05:54;;;;;;;7.32;3.30;;;;;;;;;;4971993;28;20022;-76
2022/06/01 01:08:20;;;;;;;4.60;3.40;;;;;;;;;;4971340;28;20026;-76
2022/06/01 01:10:47;;;;;;;4.68;3.00;;;;;;;;;;4973255;28;20045;-75
2022/06/01 01:13:14;;;;;;;5.10;3.10;;;;;;;;;;4976432;28;20555;-75
2022/06/01 01:15:42;;;;;;;6.22;3.30;;;;;;;;;;4971589;28;20030;-76
2022/06/01 01:18:16;;;;;;;4.93;3.17;;;;;;;;;;4971801;28;20034;-76
2022/06/01 01:20:58;;;;;;;5.47;2.72;;;;;;;;;;4969999;28;20053;-76
2022/06/01 01:23:31;;;;;;;5.95;3.63;;;;;;;;;;4974469;28;20041;-75
2022/06/01 01:25:58;;;;;;;5.28;3.10;;;;;;;;;;4973561;28;20049;-76
2022/06/01 01:28:24;;;;;;;9.70;3.65;;;;;;;;;;4974918;28;20023;-76
2022/06/01 01:30:56;;;;;;;3.83;2.97;;;;;;;;;;4974801;28;20054;-75
2022/06/01 01:33:24;;;;;;;6.15;3.47;;;;;;;;;;4975006;28;20015;-75
2022/06/01 01:35:52;;;;;;;3.33;2.90;;;;;;;;;;4975373;28;20496;-75
2022/06/01 01:38:23;;;;;;;4.68;3.20;;;;;;;;;;4974428;28;20019;-76
2022/06/01 01:40:59;;;;;;;6.47;3.13;;;;;;;;;;4974681;28;20050;-75
2022/06/01 01:43:26;;;;;;;6.90;3.45;;;;;;;;;;4974596;28;20033;-76
2022/06/01 01:45:52;;;;;;;5.85;3.30;;;;;;;;;;4974992;28;20035;-76
2022/06/01 01:48:18;;;;;;;7.90;3.50;;;;;;;;;;4974599;28;20034;-75
2022/06/01 01:50:45;;;;;;;6.03;3.67;;;;;;;;;;4975031;28;20089;-76
2022/06/01 01:53:11;;;;;;;4.00;3.33;;;;;;;;;;4974077;28;20542;-75
2022/06/01 01:55:46;;;;;;;5.38;3.42;;;;;;;;;;4974847;28;20068;-75
2022/06/01 01:58:22;;;;;;;6.68;3.50;;;;;;;;;;4974216;28;20031;-75
2022/06/01 02:00:51;;;;;;;6.15;3.55;;;;;;;;;;4971352;28;20025;-76
2022/06/01 02:03:20;;;;;;;6.00;3.53;;;;;;;;;;4973090;28;20030;-76
2022/06/01 02:06:05;;;;;;;8.32;3.22;;;;;;;;;;4969849;28;20023;-76
2022/06/01 02:08:34;;;;;;;5.13;3.05;;;;;;;;;;4974274;28;20037;-75
2022/06/01 02:14:02;;;;;;;4.80;2.97;;;;;;;;;;4956130;28;20045;-75
2022/06/01 02:16:33;;;;;;;8.68;3.60;;;;;;;;;;4952538;29;20041;-76
2022/06/01 02:19:00;;;;;;;5.57;3.58;;;;;;;;;;4952686;29;20039;-76
2022/06/01 02:21:28;;;;;;;3.90;2.78;;;;;;;;;;4952460;29;20027;-75
2022/06/01 02:23:56;;;;;;;5.10;3.60;;;;;;;;;;4952829;29;20035;-76
2022/06/01 02:26:22;;;;;;;4.15;2.70;;;;;;;;;;4952541;29;20035;-76
2022/06/01 02:28:51;;;;;;;7.53;3.28;;;;;;;;;;4936469;29;20057;-75
2022/06/01 02:31:18;;;;;;;5.53;3.03;;;;;;;;;;4952135;29;20051;-75
2022/06/01 02:33:46;;;;;;;10.82;3.20;;;;;;;;;;4951409;28;20412;-75
2022/06/01 02:36:15;;;;;;;5.00;3.17;;;;;;;;;;4952219;28;20049;-75
2022/06/01 02:38:45;;;;;;;3.80;3.20;;;;;;;;;;4952914;29;20020;-75
2022/06/01 02:44:04;;;;;;;5.55;3.22;;;;;;;;;;4882968;29;20041;-75
2022/06/01 02:46:31;;;;;;;6.00;3.08;;;;;;;;;;4880397;29;20025;-76
2022/06/01 02:48:58;;;;;;;6.65;3.60;;;;;;;;;;4879607;29;20049;-75
2022/06/01 02:51:26;;;;;;;4.90;3.13;;;;;;;;;;4893701;29;20656;-76
2022/06/01 02:53:52;;;;;;;4.65;3.03;;;;;;;;;;4899506;29;20043;-75
2022/06/01 02:56:19;;;;;;;9.13;3.03;;;;;;;;;;4898826;29;20490;-76
2022/06/01 02:58:46;;;;;;;4.97;3.47;;;;;;;;;;4898549;29;20040;-75
2022/06/01 03:01:12;;;;;;;4.45;3.22;;;;;;;;;;4899042;29;20052;-75
2022/06/01 03:03:39;;;;;;;3.58;2.78;;;;;;;;;;4895510;29;20434;-75
2022/06/01 03:06:06;;;;;;;3.63;2.92;;;;;;;;;;4897429;29;20043;-75
2022/06/01 03:08:32;;;;;;;9.98;3.42;;;;;;;;;;4899291;29;20041;-75
2022/06/01 03:10:59;;;;;;;4.88;3.20;;;;;;;;;;4898610;29;20047;-75
2022/06/01 03:13:25;;;;;;;9.43;3.45;;;;;;;;;;4899032;29;20049;-75
2022/06/01 03:15:52;;;;;;;5.93;2.85;;;;;;;;;;4897104;29;20043;-75
2022/06/01 03:18:18;;;;;;;6.93;3.35;;;;;;;;;;4895633;29;20041;-75
2022/06/01 03:20:45;;;;;;;6.03;3.05;;;;;;;;;;4926127;29;20061;-75
2022/06/01 03:23:11;;;;;;;5.60;3.22;;;;;;;;;;4966454;28;20025;-75
2022/06/01 03:25:38;;;;;;;6.53;3.40;;;;;;;;;;4968333;28;20049;-75
2022/06/01 03:28:05;;;;;;;5.45;3.75;;;;;;;;;;4968456;28;20403;-75
2022/06/01 03:30:32;;;;;;;5.47;3.38;;;;;;;;;;4972731;28;20423;-75
2022/06/01 03:32:59;;;;;;;8.30;3.22;;;;;;;;;;4968841;28;20019;-75
2022/06/01 03:35:27;;;;;;;5.60;3.47;;;;;;;;;;4968318;28;20495;-75
2022/06/01 03:37:53;;;;;;;5.80;3.30;;;;;;;;;;4968592;28;20027;-75
2022/06/01 03:40:22;;;;;;;5.45;3.10;;;;;;;;;;4968598;28;20065;-75
2022/06/01 03:42:49;;;;;;;8.95;3.75;;;;;;;;;;4970603;28;20027;-75
2022/06/01 03:48:01;;;;;;;5.93;3.53;;;;;;;;;;4972669;28;20050;-75
2022/06/01 03:50:28;;;;;;;6.30;3.63;;;;;;;;;;4982969;28;20049;-75
2022/06/01 03:52:54;;;;;;;7.65;3.35;;;;;;;;;;4972331;28;20053;-75
2022/06/01 03:55:21;;;;;;;6.35;3.42;;;;;;;;;;4972656;28;20027;-76
2022/06/01 03:57:48;;;;;;;5.03;3.03;;;;;;;;;;4972373;28;20411;-75
2022/06/01 04:00:16;;;;;;;5.93;3.83;;;;;;;;;;4972590;28;20037;-75
2022/06/01 04:02:42;;;;;;;4.50;3.25;;;;;;;;;;4970682;28;20029;-75
2022/06/01 04:05:09;;;;;;;6.28;3.65;;;;;;;;;;4972064;28;20027;-74
2022/06/01 04:07:35;;;;;;;6.93;3.75;;;;;;;;;;4972235;28;20029;-75
2022/06/01 04:10:02;;;;;;;4.80;3.40;;;;;;;;;;4972358;28;20023;-75
2022/06/01 04:12:29;;;;;;;3.95;3.30;;;;;;;;;;4983786;28;20031;-75
2022/06/01 04:14:55;;;;;;;4.95;3.13;;;;;;;;;;4968394;28;20042;-75
2022/06/01 04:17:22;;;;;;;9.23;3.40;;;;;;;;;;4970764;28;20022;-75
2022/06/01 04:19:48;;;;;;;8.30;3.67;;;;;;;;;;4967543;28;20022;-75
2022/06/01 04:22:15;;;;;;;7.03;3.63;;;;;;;;;;4967709;28;20023;-75
2022/06/01 04:24:41;;;;;;;5.15;3.30;;;;;;;;;;4971187;28;20038;-75
2022/06/01 04:27:08;;;;;;;8.75;3.60;;;;;;;;;;4969421;28;20385;-75
2022/06/01 04:29:34;;;;;;;4.70;3.92;;;;;;;;;;4967094;28;20039;-75
2022/06/01 04:32:03;;;;;;;6.40;3.67;;;;;;;;;;4971788;28;20027;-75
2022/06/01 04:34:30;;;;;;;7.60;3.55;;;;;;;;;;4971923;28;20033;-75
2022/06/01 04:36:56;;;;;;;10.27;3.97;;;;;;;;;;4972089;28;20023;-75
2022/06/01 04:39:23;;;;;;;9.48;3.40;;;;;;;;;;4972281;28;20035;-75
2022/06/01 04:41:49;;;;;;;9.00;3.63;;;;;;;;;;4972374;28;20392;-75
2022/06/01 04:44:15;;;;;;;5.25;3.40;;;;;;;;;;4971638;28;20035;-75
2022/06/01 04:46:42;;;;;;;8.05;3.63;;;;;;;;;;4971008;28;20045;-75
2022/06/01 04:49:08;;;;;;;4.03;3.63;;;;;;;;;;4971714;28;20061;-75
2022/06/01 04:51:35;;;;;;;5.32;3.35;;;;;;;;;;4971849;28;20047;-75
2022/06/01 04:54:01;;;;;;;4.75;3.60;;;;;;;;;;4971772;28;20419;-75
2022/06/01 04:56:28;;;;;;;7.32;3.72;;;;;;;;;;4968183;28;20125;-75
2022/06/01 04:58:54;;;;;;;5.60;3.70;;;;;;;;;;4970973;28;20399;-75
2022/06/01 05:01:20;;;;;;;3.95;3.30;;;;;;;;;;4970856;28;20025;-75
2022/06/01 05:03:47;;;;;;;6.78;3.35;;;;;;;;;;4972375;28;20031;-76
2022/06/01 05:06:13;;;;;;;4.70;3.55;;;;;;;;;;4973595;28;20039;-75
2022/06/01 05:08:39;;;;;;;8.35;3.45;;;;;;;;;;4971548;28;20035;-75
2022/06/01 05:11:06;;;;;;;8.82;3.67;;;;;;;;;;4979249;28;20052;-75
2022/06/01 05:13:32;;;;;;;11.23;3.92;;;;;;;;;;4977912;28;20033;-75
2022/06/01 05:16:01;;;;;;;8.07;3.88;;;;;;;;;;4971453;28;20515;-75
2022/06/01 05:18:27;;;;;;;22.70;3.85;;;;;;;;;;4975291;28;20038;-75
2022/06/01 05:20:54;;;;;;;8.20;4.00;;;;;;;;;;4971486;28;20023;-75
2022/06/01 05:23:21;;;;;;;6.50;3.97;;;;;;;;;;4970616;28;20045;-76
2022/06/01 05:25:48;;;;;;;4.88;3.55;;;;;;;;;;4970899;28;20023;-74
2022/06/01 05:28:17;;;;;;;7.07;3.50;;;;;;;;;;4970924;28;20033;-75
2022/06/01 05:30:43;;;;;;;7.88;3.67;;;;;;;;;;4973105;28;20026;-75
2022/06/01 05:33:09;;;;;;;5.57;3.40;;;;;;;;;;4971604;28;20026;-75
2022/06/01 05:35:36;;;;;;;6.07;3.38;;;;;;;;;;4971409;28;20041;-75
2022/06/01 05:38:02;;;;;;;5.53;3.25;;;;;;;;;;4970525;28;20031;-75
2022/06/01 05:40:30;;;;;;;5.63;3.40;;;;;;;;;;4970361;28;20526;-75
2022/06/01 05:42:59;;;;;;;8.70;3.33;;;;;;;;;;4971411;28;20027;-75
2022/06/01 05:45:26;;;;;;;8.30;3.85;;;;;;;;;;4973881;28;20398;-75
2022/06/01 05:47:53;;;;;;;6.30;3.55;;;;;;;;;;4970821;28;20447;-75
2022/06/01 05:50:19;;;;;;;9.52;3.60;;;;;;;;;;4974782;28;20043;-75
2022/06/01 05:52:45;;;;;;;8.73;3.67;;;;;;;;;;4974659;28;20026;-76
2022/06/01 05:55:13;;;;;;;10.00;3.42;;;;;;;;;;4974518;28;20018;-76
2022/06/01 05:57:39;;;;;;;8.80;3.45;;;;;;;;;;4974484;28;20049;-75
2022/06/01 06:00:07;;;;;;;13.27;3.78;;;;;;;;;;4974457;28;20049;-76
2022/06/01 06:02:34;;;;;;;5.68;3.92;;;;;;;;;;4969274;28;20037;-75
2022/06/01 06:05:00;;;;;;;9.30;3.90;;;;;;;;;;4970051;28;20019;-75
2022/06/01 06:07:26;;;;;;;10.13;3.50;;;;;;;;;;4970871;28;20426;-75
2022/06/01 06:09:52;;;;;;;5.57;3.22;;;;;;;;;;4971938;28;20043;-75
2022/06/01 06:12:19;;;;;;;6.60;2.80;;;;;;;;;;4974310;28;20019;-75
2022/06/01 06:14:45;;;;;;;7.30;3.22;;;;;;;;;;4970016;28;20408;-75
2022/06/01 06:17:12;;;;;;;8.32;3.17;;;;;;;;;;4972891;28;20022;-75
2022/06/01 06:19:38;;;;;;;6.57;3.10;;;;;;;;;;4967406;28;20035;-75
2022/06/01 06:22:07;;;;;;;5.63;3.20;;;;;;;;;;4969794;28;20023;-75
2022/06/01 06:24:34;;;;;;;8.45;3.35;;;;;;;;;;4969844;28;20025;-75
2022/06/01 06:27:00;;;;;;;6.35;3.53;;;;;;;;;;4969278;28;20049;-75
2022/06/01 06:29:26;;;;;;;4.28;3.40;;;;;;;;;;4967738;28;20035;-76
2022/06/01 06:31:53;;;;;;;5.15;3.22;;;;;;;;;;4969281;28;20043;-75
2022/06/01 06:34:19;;;;;;;16.60;3.95;;;;;;;;;;4969471;28;20015;-75
2022/06/01 06:36:46;;;;;;;101.55;7.85;;;;;;;;;;4971642;28;20053;-75
2022/06/01 06:39:13;;;;;;;32.65;4.68;;;;;;;;;;4971239;28;20400;-75
2022/06/01 06:41:39;;;;;;;15.50;3.63;;;;;;;;;;4969697;28;20041;-74
2022/06/01 06:44:06;;;;;;;7.38;3.65;;;;;;;;;;4969077;28;20064;-75
2022/06/01 06:46:32;;;;;;;9.25;3.70;;;;;;;;;;4968819;28;20015;-74
2022/06/01 06:48:59;;;;;;;14.07;3.22;;;;;;;;;;4970563;28;20074;-75
2022/06/01 06:51:28;;;;;;;11.15;2.80;;;;;;;;;;4971190;28;20480;-74
2022/06/01 06:53:54;;;;;;;5.07;3.08;;;;;;;;;;4972469;28;20025;-74
2022/06/01 06:56:21;;;;;;;6.10;2.65;;;;;;;;;;4967654;28;20037;-74
2022/06/01 06:58:47;;;;;;;10.27;3.10;;;;;;;;;;4968031;28;20025;-75
2022/06/01 07:01:14;;;;;;;3.65;2.58;;;;;;;;;;4968522;28;20023;-75
2022/06/01 07:03:40;;;;;;;6.90;2.60;;;;;;;;;;4972301;28;20035;-75
2022/06/01 07:06:10;;;;;;;5.32;2.67;;;;;;;;;;4972915;28;20035;-75
2022/06/01 07:08:37;;;;;;;6.22;2.83;;;;;;;;;;4972484;28;20029;-75
2022/06/01 07:11:04;;;;;;;6.38;2.65;;;;;;;;;;4971823;28;20027;-74
2022/06/01 07:13:30;;;;;;;4.38;2.63;;;;;;;;;;4968209;28;20023;-75
2022/06/01 07:16:13;;;;;;;530.20;24.70;;;;;;;;;;4969324;28;20027;-75
2022/06/01 07:18:41;;;;;;;186.52;11.88;;;;;;;;;;4973143;28;20033;-75
2022/06/01 07:21:07;;;;;;;82.10;6.88;;;;;;;;;;4972883;28;20369;-75
2022/06/01 07:23:35;;;;;;;151.15;11.02;;;;;;;;;;4967844;28;20035;-74
2022/06/01 07:26:01;;;;;;;10.18;3.38;;;;;;;;;;4970121;28;20081;-75
2022/06/01 07:28:27;;;;;;;20.80;3.05;;;;;;;;;;4968353;28;20038;-75
2022/06/01 07:30:56;;;;;;;7.55;2.67;;;;;;;;;;4970209;28;20031;-75
2022/06/01 07:33:24;;;;;;;19.77;2.97;;;;;;;;;;4972616;28;20062;-75
2022/06/01 07:35:50;;;;;;;18.77;3.20;;;;;;;;;;4972409;28;20033;-75
2022/06/01 07:43:46;;;;;;;4.07;2.38;;;;;;;;;;4971766;28;20023;-75
2022/06/01 07:46:13;;;;;;;10.88;3.00;;;;;;;;;;4971527;28;20041;-75
2022/06/01 07:48:39;;;;;;;19.25;2.80;;;;;;;;;;4970980;28;20057;-75
2022/06/01 07:51:06;;;;;;;18.85;3.40;;;;;;;;;;4967845;28;20045;-75
2022/06/01 07:53:32;;;;;;;4.07;2.50;;;;;;;;;;4989367;28;20480;-75
2022/06/01 07:55:59;;;;;;;10.27;2.83;;;;;;;;;;4970158;28;20042;-75
2022/06/01 07:58:25;;;;;;;9.60;2.72;;;;;;;;;;4967651;28;20505;-75
2022/06/01 08:00:51;;;;;;;5.90;2.47;;;;;;;;;;4968827;28;20139;-75
2022/06/01 08:03:18;;;;;;;5.43;2.40;;;;;;;;;;4970048;28;20035;-75
2022/06/01 08:05:45;;;;;;;3.95;2.10;;;;;;;;;;4987032;28;20033;-75
2022/06/01 08:08:11;;;;;;;4.13;2.30;;;;;;;;;;4971053;28;20038;-75
2022/06/01 08:10:38;;;;;;;3.58;2.30;;;;;;;;;;4969670;28;20035;-75
2022/06/01 08:13:09;;;;;;;5.95;2.50;;;;;;;;;;4966433;28;20034;-76
2022/06/01 08:15:45;;;;;;;3.28;2.17;;;;;;;;;;4971407;28;20029;-76
2022/06/01 08:18:13;;;;;;;4.75;2.40;;;;;;;;;;4969348;28;20031;-75
2022/06/01 08:20:40;;;;;;;12.23;2.22;;;;;;;;;;4967436;28;20496;-75
2022/06/01 08:23:07;;;;;;;8.32;2.28;;;;;;;;;;4972806;28;20014;-75
2022/06/01 08:25:33;;;;;;;6.45;2.10;;;;;;;;;;4970956;28;20035;-75
2022/06/01 08:28:00;;;;;;;6.00;2.42;;;;;;;;;;4970904;28;20023;-75
2022/06/01 08:30:27;;;;;;;4.53;2.10;;;;;;;;;;4970667;28;20039;-76
2022/06/01 08:32:54;;;;;;;2.88;2.00;;;;;;;;;;4999297;28;20036;-75
2022/06/01 08:35:26;;;;;;;3.15;2.20;;;;;;;;;;4971233;28;20043;-75
2022/06/01 08:37:53;;;;;;;6.47;2.20;;;;;;;;;;4974368;28;20042;-75
2022/06/01 08:40:21;;;;;;;7.90;2.40;;;;;;;;;;4974399;28;20023;-75
2022/06/01 08:42:51;;;;;;;3.03;2.08;;;;;;;;;;4971254;28;20029;-75
2022/06/01 08:45:18;;;;;;;4.35;2.15;;;;;;;;;;4981694;28;20492;-76
2022/06/01 08:47:44;;;;;;;4.80;1.95;;;;;;;;;;4978617;28;20042;-75
2022/06/01 08:50:23;;;;;;;5.07;2.20;;;;;;;;;;4972953;28;20035;-75
2022/06/01 08:52:51;;;;;;;4.28;2.10;;;;;;;;;;4975227;28;20023;-75
2022/06/01 08:55:18;;;;;;;5.53;2.00;;;;;;;;;;4974822;28;20056;-76
2022/06/01 08:57:56;;;;;;;5.30;1.70;;;;;;;;;;4974544;28;20502;-74
2022/06/01 09:00:24;;;;;;;5.68;2.08;;;;;;;;;;4973874;28;20037;-75
2022/06/01 09:03:03;;;;;;;3.53;2.20;;;;;;;;;;4971556;28;20081;-76
2022/06/01 09:05:44;;;;;;;9.38;2.25;;;;;;;;;;4975680;28;20035;-75
2022/06/01 09:08:25;;;;;;;6.00;2.47;;;;;;;;;;4969859;28;20423;-75
2022/06/01 09:11:15;;;;;;;3.17;2.05;;;;;;;;;;4974647;28;20047;-75
2022/06/01 09:13:58;;;;;;;5.05;2.20;;;;;;;;;;4974238;28;20038;-76
2022/06/01 09:16:29;;;;;;;3.00;1.60;;;;;;;;;;4964470;28;20039;-76
2022/06/01 09:18:56;;;;;;;4.53;1.67;;;;;;;;;;4975652;28;20031;-75
2022/06/01 09:24:34;;;;;;;6.10;1.80;;;;;;;;;;4972809;28;20023;-76
2022/06/01 09:27:00;;;;;;;6.00;1.92;;;;;;;;;;4970973;28;20034;-76
2022/06/01 09:29:28;;;;;;;77.85;5.20;;;;;;;;;;4976162;28;20031;-76
2022/06/01 09:32:00;;;;;;;11.05;1.92;;;;;;;;;;4973967;28;20492;-75
2022/06/01 09:34:29;;;;;;;3.60;1.63;;;;;;;;;;4971672;28;20471;-75
2022/06/01 09:37:05;;;;;;;5.22;2.00;;;;;;;;;;4973474;28;20492;-76
2022/06/01 09:39:32;;;;;;;5.15;1.80;;;;;;;;;;4958835;28;20041;-75
2022/06/01 09:42:17;;;;;;;7.80;1.85;;;;;;;;;;4969864;28;19920;-75
2022/06/01 09:44:45;;;;;;;3.58;1.77;;;;;;;;;;4972354;28;20035;-77
2022/06/01 09:47:21;;;;;;;4.70;1.85;;;;;;;;;;4969215;28;20046;-75
2022/06/01 09:49:52;;;;;;;4.28;1.70;;;;;;;;;;4968865;28;20023;-75
2022/06/01 09:52:26;;;;;;;12.30;1.60;;;;;;;;;;4969238;28;20054;-76
2022/06/01 09:54:55;;;;;;;3.92;1.70;;;;;;;;;;4970797;28;20035;-75
2022/06/01 09:57:31;;;;;;;9.83;2.00;;;;;;;;;;4972794;28;20039;-76
2022/06/01 10:08:31;;;;;;;4.80;1.90;;;;;;;;;;4953064;28;20038;-76
2022/06/01 10:11:00;;;;;;;7.72;1.83;;;;;;;;;;4953163;28;20035;-76
2022/06/01 10:13:28;;;;;;;5.38;2.40;;;;;;;;;;4952953;28;20214;-75
2022/06/01 10:15:57;;;;;;;3.05;1.92;;;;;;;;;;4953139;28;20120;-75
2022/06/01 10:18:27;;;;;;;4.33;1.73;;;;;;;;;;4953283;28;20496;-75
2022/06/01 10:20:56;;;;;;;5.45;1.85;;;;;;;;;;4935938;29;20039;-75
2022/06/01 10:23:31;;;;;;;7.07;1.80;;;;;;;;;;4952766;28;20070;-75
2022/06/01 10:26:09;;;;;;;7.10;2.28;;;;;;;;;;4953800;28;20588;-75
2022/06/01 10:28:41;;;;;;;4.05;1.70;;;;;;;;;;4951834;28;20034;-75
2022/06/01 10:31:14;;;;;;;7.28;2.08;;;;;;;;;;4952740;28;20034;-76
2022/06/01 10:33:42;;;;;;;3.03;1.63;;;;;;;;;;4952080;28;20039;-75
2022/06/01 10:36:12;;;;;;;3.90;1.70;;;;;;;;;;4951154;28;20857;-75
2022/06/01 10:38:41;;;;;;;6.43;1.90;;;;;;;;;;4961857;28;20039;-76
2022/06/01 10:41:16;;;;;;;4.32;2.08;;;;;;;;;;4968608;28;20031;-76
2022/06/01 10:43:48;;;;;;;4.95;1.77;;;;;;;;;;4968531;28;20033;-76
2022/06/01 10:46:22;;;;;;;2.78;1.77;;;;;;;;;;4968470;28;20031;-75
2022/06/01 10:48:52;;;;;;;3.88;1.90;;;;;;;;;;4970282;28;20421;-76
2022/06/01 10:51:20;;;;;;;4.53;1.70;;;;;;;;;;4970902;28;20045;-76
2022/06/01 10:54:03;;;;;;;3.20;1.70;;;;;;;;;;4969160;28;20031;-75
2022/06/01 10:56:30;;;;;;;4.35;1.90;;;;;;;;;;4983137;28;20027;-76
2022/06/01 10:59:01;;;;;;;6.63;1.73;;;;;;;;;;4967897;28;20061;-76
2022/06/01 11:01:46;;;;;;;6.15;1.90;;;;;;;;;;4972452;28;20035;-75
2022/06/01 11:04:23;;;;;;;9.75;2.30;;;;;;;;;;4972062;28;20391;-75
2022/06/01 11:07:01;;;;;;;4.35;1.70;;;;;;;;;;4972458;28;20035;-76
2022/06/01 11:09:36;;;;;;;3.60;1.70;;;;;;;;;;4972355;28;20023;-75
2022/06/01 11:12:17;;;;;;;3.88;1.80;;;;;;;;;;4995754;28;20034;-90
2022/06/01 11:15:01;;;;;;;8.23;2.05;;;;;;;;;;4970830;28;20101;-83
2022/06/01 11:17:34;;;;;;;7.15;2.00;;;;;;;;;;4971522;28;20085;-76
2022/06/01 11:20:19;;;;;;;6.13;1.90;;;;;;;;;;4969544;28;20039;-84
2022/06/01 11:22:53;;;;;;;3.10;1.67;;;;;;;;;;4968030;28;20073;-85
2022/06/01 11:25:41;;;;;;;3.78;1.65;;;;;;;;;;4973942;28;20035;-86
2022/06/01 11:28:13;;;;;;;7.80;2.03;;;;;;;;;;4973953;28;20044;-85
2022/06/01 11:30:42;;;;;;;4.82;1.80;;;;;;;;;;4969627;28;20034;-84
2022/06/01 11:33:15;;;;;;;5.35;2.00;;;;;;;;;;4971318;28;20033;-84
2022/06/01 11:35:43;;;;;;;7.25;1.90;;;;;;;;;;4967883;28;20503;-85
2022/06/01 11:38:10;;;;;;;5.75;1.88;;;;;;;;;;4967235;28;20034;-84
2022/06/01 11:40:48;;;;;;;4.38;1.92;;;;;;;;;;4970596;28;20504;-84
2022/06/01 11:43:18;;;;;;;7.00;1.75;;;;;;;;;;4967166;28;20027;-85
2022/06/01 11:45:48;;;;;;;3.97;1.80;;;;;;;;;;4969889;28;20033;-85
2022/06/01 11:48:20;;;;;;;6.40;2.00;;;;;;;;;;4969269;28;20055;-85
2022/06/01 11:50:56;;;;;;;7.20;1.83;;;;;;;;;;4969931;28;20030;-85
2022/06/01 11:53:23;;;;;;;8.25;1.80;;;;;;;;;;4971417;28;20022;-84
2022/06/01 11:55:49;;;;;;;8.45;1.98;;;;;;;;;;4965840;28;20027;-85
2022/06/01 11:58:39;;;;;;;8.88;2.00;;;;;;;;;;4967461;28;20085;-83
2022/06/01 12:01:13;;;;;;;3.97;1.90;;;;;;;;;;4966926;28;20413;-86
2022/06/01 12:04:00;;;;;;;6.43;1.85;;;;;;;;;;4969379;28;20124;-86
2022/06/01 12:06:40;;;;;;;4.13;1.77;;;;;;;;;;4965531;28;20077;-85
2022/06/01 12:09:12;;;;;;;4.82;1.90;;;;;;;;;;4968173;28;20520;-85
2022/06/01 12:11:38;;;;;;;3.30;1.60;;;;;;;;;;4974578;28;20407;-84
2022/06/01 12:14:26;;;;;;;7.63;2.03;;;;;;;;;;4969772;28;20077;-85
2022/06/01 12:17:11;;;;;;;5.00;1.92;;;;;;;;;;4993478;28;20042;-84
2022/06/01 12:19:37;;;;;;;4.70;1.80;;;;;;;;;;4974704;28;20049;-83
2022/06/01 12:22:04;;;;;;;3.38;1.60;;;;;;;;;;4990283;28;20437;-87
2022/06/01 12:30:17;;;;;;;4.20;1.90;;;;;;;;;;4985909;28;20415;-83
2022/06/01 12:33:03;;;;;;;3.72;1.70;;;;;;;;;;4990594;28;20462;-85
2022/06/01 12:35:31;;;;;;;3.88;1.70;;;;;;;;;;4998979;28;20042;-85
2022/06/01 12:38:09;;;;;;;4.95;2.00;;;;;;;;;;4995631;28;20042;-84
2022/06/01 12:40:36;;;;;;;3.60;1.80;;;;;;;;;;4989761;28;20054;-86
2022/06/01 12:43:03;;;;;;;9.63;1.85;;;;;;;;;;4982814;28;20030;-85
2022/06/01 12:45:37;;;;;;;6.70;1.92;;;;;;;;;;5003006;28;20046;-83
2022/06/01 12:48:07;;;;;;;7.30;1.90;;;;;;;;;;5000338;28;20115;-85
2022/06/01 12:50:45;;;;;;;6.28;2.03;;;;;;;;;;4992140;28;20045;-86
2022/06/01 12:53:13;;;;;;;6.35;2.10;;;;;;;;;;4990263;28;20062;-83
2022/06/01 12:55:40;;;;;;;3.55;1.50;;;;;;;;;;4966414;28;20811;-83
2022/06/01 12:58:21;;;;;;;7.28;1.77;;;;;;;;;;4970375;28;20031;-84
2022/06/01 13:00:49;;;;;;;6.82;1.88;;;;;;;;;;4969370;28;20037;-84
2022/06/01 13:03:17;;;;;;;8.20;2.20;;;;;;;;;;4971099;28;20038;-86
2022/06/01 13:05:50;;;;;;;4.97;1.95;;;;;;;;;;4969225;28;20029;-85
2022/06/01 13:08:18;;;;;;;6.93;1.85;;;;;;;;;;4970969;28;20035;-83
2022/06/01 13:10:45;;;;;;;7.00;2.30;;;;;;;;;;4966552;28;20030;-84
2022/06/01 13:13:14;;;;;;;6.47;2.10;;;;;;;;;;4976262;28;20023;-84
2022/06/01 13:15:42;;;;;;;10.55;2.20;;;;;;;;;;4970085;28;20026;-84
2022/06/01 13:18:13;;;;;;;6.72;2.20;;;;;;;;;;4971051;28;20038;-82
2022/06/01 13:20:42;;;;;;;5.05;2.20;;;;;;;;;;4970598;28;20081;-82
2022/06/01 13:23:17;;;;;;;7.18;2.15;;;;;;;;;;4969992;28;20403;-83
2022/06/01 13:25:43;;;;;;;6.68;1.88;;;;;;;;;;4970202;28;20022;-84
2022/06/01 13:28:11;;;;;;;8.45;2.20;;;;;;;;;;4969623;28;20027;-83
2022/06/01 13:30:39;;;;;;;9.07;2.35;;;;;;;;;;4971939;28;20026;-82
2022/06/01 13:33:16;;;;;;;9.73;1.85;;;;;;;;;;4973366;28;20035;-82
2022/06/01 13:35:43;;;;;;;7.72;2.15;;;;;;;;;;4969754;28;20522;-83
2022/06/01 13:38:21;;;;;;;6.47;2.30;;;;;;;;;;4973655;28;20391;-82
2022/06/01 13:40:53;;;;;;;7.32;1.90;;;;;;;;;;4974066;28;20038;-83
2022/06/01 13:43:19;;;;;;;6.38;2.10;;;;;;;;;;4973792;28;20053;-83
2022/06/01 13:45:52;;;;;;;2.88;1.88;;;;;;;;;;4974204;28;20037;-84
2022/06/01 13:48:24;;;;;;;8.10;1.67;;;;;;;;;;4973430;28;20054;-82
2022/06/01 13:50:56;;;;;;;5.80;2.30;;;;;;;;;;4974125;28;20562;-82
2022/06/01 13:53:33;;;;;;;7.22;2.30;;;;;;;;;;4973709;28;20035;-82
2022/06/01 13:56:02;;;;;;;10.45;2.03;;;;;;;;;;4973437;28;20023;-82
2022/06/01 13:58:48;;;;;;;5.38;2.03;;;;;;;;;;4973522;28;20395;-83
2022/06/01 14:01:17;;;;;;;4.35;1.92;;;;;;;;;;4972690;28;20042;-84
2022/06/01 14:03:45;;;;;;;4.88;1.92;;;;;;;;;;4973317;28;20636;-82
2022/06/01 14:06:12;;;;;;;9.57;2.00;;;;;;;;;;4973628;28;20041;-82
2022/06/01 14:08:52;;;;;;;7.22;1.92;;;;;;;;;;4973270;28;20029;-83
2022/06/01 14:11:28;;;;;;;10.33;2.17;;;;;;;;;;4974791;28;20014;-83
2022/06/01 14:13:55;;;;;;;5.85;2.05;;;;;;;;;;4976622;28;20027;-83
2022/06/01 14:16:22;;;;;;;7.50;1.95;;;;;;;;;;4973498;28;20031;-84
2022/06/01 14:18:51;;;;;;;6.85;1.77;;;;;;;;;;4973142;28;20027;-83
2022/06/01 14:21:17;;;;;;;5.05;1.83;;;;;;;;;;4971432;28;20047;-83
2022/06/01 14:23:44;;;;;;;6.22;2.15;;;;;;;;;;4990430;28;20030;-84
2022/06/01 14:28:55;;;;;;;9.18;2.17;;;;;;;;;;4972495;28;20023;-82
2022/06/01 14:31:26;;;;;;;13.07;1.98;;;;;;;;;;4972047;28;20030;-82
2022/06/01 14:33:53;;;;;;;8.23;2.00;;;;;;;;;;4972956;28;20015;-83
2022/06/01 14:36:20;;;;;;;10.95;1.98;;;;;;;;;;4972162;28;20038;-83
2022/06/01 14:38:47;;;;;;;10.35;1.92;;;;;;;;;;4969119;28;20031;-82
2022/06/01 14:41:25;;;;;;;14.52;3.00;;;;;;;;;;4968336;28;20039;-83
2022/06/01 14:43:52;;;;;;;9.52;2.65;;;;;;;;;;4968445;28;20030;-83
2022/06/01 14:46:18;;;;;;;3.55;1.65;;;;;;;;;;4968756;28;20023;-82
2022/06/01 14:48:45;;;;;;;4.30;1.60;;;;;;;;;;4971291;28;20035;-83
2022/06/01 14:51:11;;;;;;;7.57;1.92;;;;;;;;;;4970258;28;20089;-84
2022/06/01 14:53:38;;;;;;;4.45;1.85;;;;;;;;;;4983489;28;20031;-83
2022/06/01 14:56:06;;;;;;;9.18;2.10;;;;;;;;;;4972206;28;20035;-83
2022/06/01 14:58:32;;;;;;;7.30;2.15;;;;;;;;;;4972782;28;20018;-82
2022/06/01 15:01:03;;;;;;;6.70;2.10;;;;;;;;;;4972593;28;20041;-82
2022/06/01 15:03:29;;;;;;;;;;;;;;;;;;4972852;28;20019;-84
2022/06/01 15:05:55;;;;;;;8.98;2.00;;;;;;;;;;4973205;28;19910;-84
2022/06/01 15:08:22;;;;;;;8.70;2.00;;;;;;;;;;4972273;28;20037;-84
2022/06/01 15:10:48;;;;;;;7.75;2.15;;;;;;;;;;4974255;28;20031;-83
2022/06/01 15:13:15;;;;;;;6.18;2.30;;;;;;;;;;4978004;28;20023;-82
2022/06/01 15:15:42;;;;;;;9.15;2.00;;;;;;;;;;4971777;28;20054;-83
2022/06/01 15:18:09;;;;;;;8.18;2.22;;;;;;;;;;4971096;28;20026;-84
2022/06/01 15:20:37;;;;;;;16.10;2.53;;;;;;;;;;4967368;28;20542;-82
2022/06/01 15:23:03;;;;;;;13.82;2.03;;;;;;;;;;4968069;28;20496;-84
2022/06/01 15:25:30;;;;;;;7.88;2.10;;;;;;;;;;4967567;28;20018;-83
2022/06/01 15:27:56;;;;;;;9.13;2.15;;;;;;;;;;4968900;28;20035;-82